sensor_id;sensor_type;location;lat;lon;timestamp;temperature;humidity
44695;DHT22;32845;59.422;17.930;2023-03-20T00:01:51;3.00;99.90
44695;DHT22;32845;59.422;17.930;2023-03-20T00:06:23;3.00;99.90
44695;DHT22;32845;59.422;17.930;2023-03-20T00:10:54;3.00;99.90
44695;DHT22;32845;59.422;17.930;2023-03-20T00:15:31;3.00;99.90
44695;DHT22;32845;59.422;17.930;2023-03-20T00:20:02;3.00;99.90
44695;DHT22;32845;59.422;17.930;2023-03-20T00:24:33;3.00;99.90
44695;DHT22;32845;59.422;17.930;2023-03-20T00:29:05;3.00;99.90
44695;DHT22;32845;59.422;17.930;2023-03-20T00:33:36;3.00;99.90
44695;DHT22;32845;59.422;17.930;2023-03-20T00:38:07;3.00;99.90
44695;DHT22;32845;59.422;17.930;2023-03-20T00:42:38;3.00;99.90
44695;DHT22;32845;59.422;17.930;2023-03-20T00:47:16;3.00;99.90
44695;DHT22;32845;59.422;17.930;2023-03-20T00:51:48;3.10;99.90
44695;DHT22;32845;59.422;17.930;2023-03-20T00:56:34;3.10;99.90
44695;DHT22;32845;59.422;17.930;2023-03-20T01:01:05;3.10;99.90
44695;DHT22;32845;59.422;17.930;2023-03-20T01:05:36;3.10;99.90
44695;DHT22;32845;59.422;17.930;2023-03-20T01:10:08;3.10;99.90
44695;DHT22;32845;59.422;17.930;2023-03-20T01:14:40;3.20;99.90
44695;DHT22;32845;59.422;17.930;2023-03-20T01:19:14;3.20;99.90
44695;DHT22;32845;59.422;17.930;2023-03-20T01:23:47;3.20;99.90
44695;DHT22;32845;59.422;17.930;2023-03-20T01:28:22;3.20;99.90
44695;DHT22;32845;59.422;17.930;2023-03-20T01:32:54;3.30;99.90
44695;DHT22;32845;59.422;17.930;2023-03-20T01:37:26;3.30;99.90
44695;DHT22;32845;59.422;17.930;2023-03-20T01:41:57;3.30;99.90
44695;DHT22;32845;59.422;17.930;2023-03-20T01:46:30;3.30;99.90
44695;DHT22;32845;59.422;17.930;2023-03-20T01:51:01;3.30;99.90
44695;DHT22;32845;59.422;17.930;2023-03-20T01:55:32;3.30;99.90
44695;DHT22;32845;59.422;17.930;2023-03-20T02:00:08;3.30;99.90
44695;DHT22;32845;59.422;17.930;2023-03-20T02:04:42;3.40;99.90
44695;DHT22;32845;59.422;17.930;2023-03-20T02:09:15;3.40;99.90
44695;DHT22;32845;59.422;17.930;2023-03-20T02:13:46;3.40;99.90
44695;DHT22;32845;59.422;17.930;2023-03-20T02:18:17;3.40;99.90
44695;DHT22;32845;59.422;17.930;2023-03-20T02:23:36;3.40;99.90
44695;DHT22;32845;59.422;17.930;2023-03-20T02:47:14;3.50;99.90
44695;DHT22;32845;59.422;17.930;2023-03-20T03:02:07;3.50;99.90
44695;DHT22;32845;59.422;17.930;2023-03-20T03:06:38;3.50;99.90
44695;DHT22;32845;59.422;17.930;2023-03-20T03:11:11;3.40;99.90
44695;DHT22;32845;59.422;17.930;2023-03-20T03:15:45;3.50;99.90
44695;DHT22;32845;59.422;17.930;2023-03-20T03:20:43;3.50;99.90
44695;DHT22;32845;59.422;17.930;2023-03-20T03:25:13;3.50;99.90
44695;DHT22;32845;59.422;17.930;2023-03-20T03:29:48;3.50;99.90
44695;DHT22;32845;59.422;17.930;2023-03-20T03:34:21;3.50;99.90
44695;DHT22;32845;59.422;17.930;2023-03-20T03:43:39;3.50;99.90
44695;DHT22;32845;59.422;17.930;2023-03-20T03:48:18;3.60;99.90
44695;DHT22;32845;59.422;17.930;2023-03-20T03:52:51;3.60;99.90
44695;DHT22;32845;59.422;17.930;2023-03-20T03:57:49;3.60;99.90
44695;DHT22;32845;59.422;17.930;2023-03-20T04:02:22;3.60;99.90
44695;DHT22;32845;59.422;17.930;2023-03-20T04:06:53;3.60;99.90
44695;DHT22;32845;59.422;17.930;2023-03-20T04:11:25;3.70;99.90
44695;DHT22;32845;59.422;17.930;2023-03-20T04:15:59;3.70;99.90
44695;DHT22;32845;59.422;17.930;2023-03-20T04:20:30;3.70;99.90
44695;DHT22;32845;59.422;17.930;2023-03-20T04:25:06;3.80;99.90
44695;DHT22;32845;59.422;17.930;2023-03-20T04:29:37;3.80;99.90
44695;DHT22;32845;59.422;17.930;2023-03-20T04:34:08;3.80;99.90
44695;DHT22;32845;59.422;17.930;2023-03-20T04:38:39;3.80;99.90
44695;DHT22;32845;59.422;17.930;2023-03-20T04:43:10;3.90;99.90
44695;DHT22;32845;59.422;17.930;2023-03-20T04:47:40;3.90;99.90
44695;DHT22;32845;59.422;17.930;2023-03-20T04:52:11;3.90;99.90
44695;DHT22;32845;59.422;17.930;2023-03-20T04:56:41;4.00;99.90
44695;DHT22;32845;59.422;17.930;2023-03-20T05:01:12;4.00;99.90
44695;DHT22;32845;59.422;17.930;2023-03-20T05:05:43;4.00;99.90
44695;DHT22;32845;59.422;17.930;2023-03-20T05:10:14;4.00;99.90
44695;DHT22;32845;59.422;17.930;2023-03-20T05:14:44;4.10;99.90
44695;DHT22;32845;59.422;17.930;2023-03-20T05:19:15;4.10;99.90
44695;DHT22;32845;59.422;17.930;2023-03-20T05:23:46;4.10;99.90
44695;DHT22;32845;59.422;17.930;2023-03-20T05:28:16;4.20;99.90
44695;DHT22;32845;59.422;17.930;2023-03-20T05:32:51;4.20;99.90
44695;DHT22;32845;59.422;17.930;2023-03-20T05:37:22;4.20;99.90
44695;DHT22;32845;59.422;17.930;2023-03-20T05:41:52;4.20;99.90
44695;DHT22;32845;59.422;17.930;2023-03-20T05:46:23;4.30;99.90
44695;DHT22;32845;59.422;17.930;2023-03-20T05:50:55;4.30;99.90
44695;DHT22;32845;59.422;17.930;2023-03-20T05:55:26;4.30;99.90
44695;DHT22;32845;59.422;17.930;2023-03-20T05:59:57;4.40;99.90
44695;DHT22;32845;59.422;17.930;2023-03-20T06:04:27;4.40;99.90
44695;DHT22;32845;59.422;17.930;2023-03-20T06:08:58;4.40;99.90
44695;DHT22;32845;59.422;17.930;2023-03-20T06:13:29;4.50;99.90
44695;DHT22;32845;59.422;17.930;2023-03-20T06:17:59;4.50;99.90
44695;DHT22;32845;59.422;17.930;2023-03-20T06:22:30;4.60;99.90
44695;DHT22;32845;59.422;17.930;2023-03-20T06:27:01;4.60;99.90
44695;DHT22;32845;59.422;17.930;2023-03-20T06:31:32;4.60;99.90
44695;DHT22;32845;59.422;17.930;2023-03-20T06:36:03;4.70;99.90
44695;DHT22;32845;59.422;17.930;2023-03-20T06:40:34;4.70;99.90
44695;DHT22;32845;59.422;17.930;2023-03-20T06:45:06;4.80;99.90
44695;DHT22;32845;59.422;17.930;2023-03-20T06:49:37;4.80;99.90
44695;DHT22;32845;59.422;17.930;2023-03-20T06:54:08;4.80;99.90
44695;DHT22;32845;59.422;17.930;2023-03-20T06:58:39;4.90;99.90
44695;DHT22;32845;59.422;17.930;2023-03-20T07:03:09;5.00;99.90
44695;DHT22;32845;59.422;17.930;2023-03-20T07:07:41;5.00;99.90
44695;DHT22;32845;59.422;17.930;2023-03-20T07:12:13;5.10;99.90
44695;DHT22;32845;59.422;17.930;2023-03-20T07:16:44;5.20;99.90
44695;DHT22;32845;59.422;17.930;2023-03-20T07:21:18;5.20;99.90
44695;DHT22;32845;59.422;17.930;2023-03-20T07:25:50;5.20;99.90
44695;DHT22;32845;59.422;17.930;2023-03-20T07:30:21;5.30;99.90
44695;DHT22;32845;59.422;17.930;2023-03-20T07:34:52;5.30;99.90
44695;DHT22;32845;59.422;17.930;2023-03-20T07:39:22;5.30;99.90
44695;DHT22;32845;59.422;17.930;2023-03-20T07:43:53;5.40;99.90
44695;DHT22;32845;59.422;17.930;2023-03-20T07:48:24;5.50;99.90
44695;DHT22;32845;59.422;17.930;2023-03-20T07:52:54;5.60;99.90
44695;DHT22;32845;59.422;17.930;2023-03-20T07:57:25;5.70;99.90
44695;DHT22;32845;59.422;17.930;2023-03-20T08:01:56;5.80;99.90
44695;DHT22;32845;59.422;17.930;2023-03-20T08:06:26;5.80;99.90
44695;DHT22;32845;59.422;17.930;2023-03-20T08:10:57;5.90;99.90
44695;DHT22;32845;59.422;17.930;2023-03-20T08:15:28;5.90;99.90
44695;DHT22;32845;59.422;17.930;2023-03-20T08:19:58;6.00;99.90
44695;DHT22;32845;59.422;17.930;2023-03-20T08:24:30;6.00;99.90
44695;DHT22;32845;59.422;17.930;2023-03-20T08:29:01;6.10;99.90
44695;DHT22;32845;59.422;17.930;2023-03-20T08:33:32;6.20;99.90
44695;DHT22;32845;59.422;17.930;2023-03-20T08:38:03;6.20;99.90
44695;DHT22;32845;59.422;17.930;2023-03-20T08:42:34;6.30;99.90
44695;DHT22;32845;59.422;17.930;2023-03-20T08:47:04;6.30;99.90
44695;DHT22;32845;59.422;17.930;2023-03-20T08:51:37;6.40;99.90
44695;DHT22;32845;59.422;17.930;2023-03-20T08:56:08;6.40;99.90
44695;DHT22;32845;59.422;17.930;2023-03-20T09:00:39;6.50;99.90
44695;DHT22;32845;59.422;17.930;2023-03-20T09:05:10;6.60;99.90
44695;DHT22;32845;59.422;17.930;2023-03-20T09:09:41;6.60;99.90
44695;DHT22;32845;59.422;17.930;2023-03-20T09:14:11;6.70;99.90
44695;DHT22;32845;59.422;17.930;2023-03-20T09:18:42;6.70;99.90
44695;DHT22;32845;59.422;17.930;2023-03-20T09:23:13;6.70;99.90
44695;DHT22;32845;59.422;17.930;2023-03-20T09:27:43;6.80;99.90
44695;DHT22;32845;59.422;17.930;2023-03-20T09:32:15;6.90;99.90
44695;DHT22;32845;59.422;17.930;2023-03-20T09:36:46;7.00;99.90
44695;DHT22;32845;59.422;17.930;2023-03-20T09:41:20;7.00;99.90
44695;DHT22;32845;59.422;17.930;2023-03-20T09:50:35;7.00;99.90
44695;DHT22;32845;59.422;17.930;2023-03-20T09:55:14;6.90;99.90
44695;DHT22;32845;59.422;17.930;2023-03-20T09:59:46;7.00;99.90
44695;DHT22;32845;59.422;17.930;2023-03-20T10:04:18;7.00;99.90
44695;DHT22;32845;59.422;17.930;2023-03-20T10:08:49;7.00;99.90
44695;DHT22;32845;59.422;17.930;2023-03-20T10:22:48;7.10;99.90
44695;DHT22;32845;59.422;17.930;2023-03-20T10:27:36;7.00;99.90
44695;DHT22;32845;59.422;17.930;2023-03-20T10:32:20;7.00;99.90
44695;DHT22;32845;59.422;17.930;2023-03-20T10:41:52;6.90;99.90
44695;DHT22;32845;59.422;17.930;2023-03-20T10:46:29;6.90;99.90
44695;DHT22;32845;59.422;17.930;2023-03-20T10:51:02;6.90;99.90
44695;DHT22;32845;59.422;17.930;2023-03-20T10:55:37;6.90;99.90
44695;DHT22;32845;59.422;17.930;2023-03-20T11:00:17;7.00;99.90
44695;DHT22;32845;59.422;17.930;2023-03-20T11:04:49;7.10;99.90
44695;DHT22;32845;59.422;17.930;2023-03-20T11:09:22;7.10;99.90
44695;DHT22;32845;59.422;17.930;2023-03-20T11:13:54;7.20;99.90
44695;DHT22;32845;59.422;17.930;2023-03-20T11:18:25;7.20;99.90
44695;DHT22;32845;59.422;17.930;2023-03-20T11:22:58;7.30;99.90
44695;DHT22;32845;59.422;17.930;2023-03-20T11:27:32;7.30;99.90
44695;DHT22;32845;59.422;17.930;2023-03-20T11:41:27;7.50;99.90
44695;DHT22;32845;59.422;17.930;2023-03-20T11:45:59;7.60;99.90
44695;DHT22;32845;59.422;17.930;2023-03-20T11:50:41;7.70;99.90
44695;DHT22;32845;59.422;17.930;2023-03-20T11:55:27;7.70;99.90
44695;DHT22;32845;59.422;17.930;2023-03-20T12:04:40;7.80;99.90
44695;DHT22;32845;59.422;17.930;2023-03-20T12:09:35;7.80;99.90
44695;DHT22;32845;59.422;17.930;2023-03-20T12:14:16;7.90;99.90
44695;DHT22;32845;59.422;17.930;2023-03-20T12:18:56;7.90;99.90
44695;DHT22;32845;59.422;17.930;2023-03-20T12:23:45;8.00;99.90
44695;DHT22;32845;59.422;17.930;2023-03-20T12:28:35;8.00;99.90
44695;DHT22;32845;59.422;17.930;2023-03-20T12:38:23;8.00;99.90
44695;DHT22;32845;59.422;17.930;2023-03-20T12:43:14;8.00;99.90
44695;DHT22;32845;59.422;17.930;2023-03-20T12:48:23;7.90;99.90
44695;DHT22;32845;59.422;17.930;2023-03-20T12:53:33;7.90;99.90
44695;DHT22;32845;59.422;17.930;2023-03-20T12:58:23;7.90;99.90
44695;DHT22;32845;59.422;17.930;2023-03-20T13:36:57;8.00;99.90
44695;DHT22;32845;59.422;17.930;2023-03-20T13:41:33;7.90;99.90
44695;DHT22;32845;59.422;17.930;2023-03-20T13:46:10;7.80;99.90
44695;DHT22;32845;59.422;17.930;2023-03-20T14:05:15;7.00;99.90
44695;DHT22;32845;59.422;17.930;2023-03-20T14:09:47;6.90;99.90
44695;DHT22;32845;59.422;17.930;2023-03-20T14:14:27;6.80;99.90
44695;DHT22;32845;59.422;17.930;2023-03-20T14:19:08;6.70;99.90
44695;DHT22;32845;59.422;17.930;2023-03-20T14:23:59;6.50;99.90
44695;DHT22;32845;59.422;17.930;2023-03-20T14:28:44;6.40;99.90
44695;DHT22;32845;59.422;17.930;2023-03-20T14:43:01;6.20;99.90
44695;DHT22;32845;59.422;17.930;2023-03-20T14:57:33;5.80;99.90
44695;DHT22;32845;59.422;17.930;2023-03-20T15:02:03;5.70;99.90
44695;DHT22;32845;59.422;17.930;2023-03-20T15:06:48;5.70;99.90
44695;DHT22;32845;59.422;17.930;2023-03-20T15:11:20;5.60;99.90
44695;DHT22;32845;59.422;17.930;2023-03-20T15:15:57;5.50;99.90
44695;DHT22;32845;59.422;17.930;2023-03-20T15:20:28;5.40;99.90
44695;DHT22;32845;59.422;17.930;2023-03-20T15:24:58;5.30;99.90
44695;DHT22;32845;59.422;17.930;2023-03-20T15:29:30;5.20;99.90
44695;DHT22;32845;59.422;17.930;2023-03-20T15:34:06;5.10;99.90
44695;DHT22;32845;59.422;17.930;2023-03-20T15:38:38;5.00;99.90
44695;DHT22;32845;59.422;17.930;2023-03-20T15:43:22;4.80;99.90
44695;DHT22;32845;59.422;17.930;2023-03-20T15:48:08;4.70;99.90
44695;DHT22;32845;59.422;17.930;2023-03-20T15:52:43;4.60;99.90
44695;DHT22;32845;59.422;17.930;2023-03-20T15:57:36;4.50;99.90
44695;DHT22;32845;59.422;17.930;2023-03-20T16:02:10;4.50;99.90
44695;DHT22;32845;59.422;17.930;2023-03-20T16:06:46;4.40;99.90
44695;DHT22;32845;59.422;17.930;2023-03-20T16:11:18;4.30;99.90
44695;DHT22;32845;59.422;17.930;2023-03-20T16:15:51;4.20;99.90
44695;DHT22;32845;59.422;17.930;2023-03-20T16:20:24;4.20;99.90
44695;DHT22;32845;59.422;17.930;2023-03-20T16:24:59;4.10;99.90
44695;DHT22;32845;59.422;17.930;2023-03-20T16:29:30;4.10;99.90
44695;DHT22;32845;59.422;17.930;2023-03-20T16:34:11;4.00;99.90
44695;DHT22;32845;59.422;17.930;2023-03-20T16:43:37;3.90;99.90
44695;DHT22;32845;59.422;17.930;2023-03-20T16:52:45;3.70;99.90
44695;DHT22;32845;59.422;17.930;2023-03-20T16:57:18;3.60;99.90
44695;DHT22;32845;59.422;17.930;2023-03-20T17:01:49;3.60;99.90
44695;DHT22;32845;59.422;17.930;2023-03-20T17:06:35;3.60;99.90
44695;DHT22;32845;59.422;17.930;2023-03-20T17:11:12;3.50;99.90
44695;DHT22;32845;59.422;17.930;2023-03-20T17:15:44;3.50;99.90
44695;DHT22;32845;59.422;17.930;2023-03-20T17:20:22;3.40;99.90
44695;DHT22;32845;59.422;17.930;2023-03-20T17:24:53;3.40;99.90
44695;DHT22;32845;59.422;17.930;2023-03-20T17:29:24;3.40;99.90
44695;DHT22;32845;59.422;17.930;2023-03-20T17:33:55;3.40;99.90
44695;DHT22;32845;59.422;17.930;2023-03-20T17:38:25;3.40;99.90
44695;DHT22;32845;59.422;17.930;2023-03-20T17:42:56;3.40;99.90
44695;DHT22;32845;59.422;17.930;2023-03-20T17:47:27;3.30;99.90
44695;DHT22;32845;59.422;17.930;2023-03-20T17:51:58;3.30;99.90
44695;DHT22;32845;59.422;17.930;2023-03-20T17:56:29;3.30;99.90
44695;DHT22;32845;59.422;17.930;2023-03-20T18:01:02;3.20;99.90
44695;DHT22;32845;59.422;17.930;2023-03-20T18:05:33;3.20;99.90
44695;DHT22;32845;59.422;17.930;2023-03-20T18:10:34;3.20;99.90
44695;DHT22;32845;59.422;17.930;2023-03-20T18:15:06;3.10;99.90
44695;DHT22;32845;59.422;17.930;2023-03-20T18:19:37;3.10;99.90
44695;DHT22;32845;59.422;17.930;2023-03-20T18:24:08;3.00;99.90
44695;DHT22;32845;59.422;17.930;2023-03-20T18:28:39;2.90;99.90
44695;DHT22;32845;59.422;17.930;2023-03-20T18:33:09;2.90;99.90
44695;DHT22;32845;59.422;17.930;2023-03-20T18:37:41;2.80;99.90
44695;DHT22;32845;59.422;17.930;2023-03-20T18:42:12;2.80;99.90
44695;DHT22;32845;59.422;17.930;2023-03-20T18:46:42;2.70;99.90
44695;DHT22;32845;59.422;17.930;2023-03-20T18:51:13;2.70;99.90
44695;DHT22;32845;59.422;17.930;2023-03-20T18:55:44;2.60;99.90
44695;DHT22;32845;59.422;17.930;2023-03-20T19:04:50;2.50;99.90
44695;DHT22;32845;59.422;17.930;2023-03-20T19:09:21;2.50;99.90
44695;DHT22;32845;59.422;17.930;2023-03-20T19:13:52;2.50;99.90
44695;DHT22;32845;59.422;17.930;2023-03-20T19:18:25;2.60;99.90
44695;DHT22;32845;59.422;17.930;2023-03-20T19:22:56;2.60;99.90
44695;DHT22;32845;59.422;17.930;2023-03-20T19:27:26;2.60;99.90
44695;DHT22;32845;59.422;17.930;2023-03-20T19:31:57;2.60;99.90
44695;DHT22;32845;59.422;17.930;2023-03-20T19:36:31;2.60;99.90
44695;DHT22;32845;59.422;17.930;2023-03-20T19:41:02;2.50;99.90
44695;DHT22;32845;59.422;17.930;2023-03-20T19:45:35;2.50;99.90
44695;DHT22;32845;59.422;17.930;2023-03-20T19:50:33;2.50;99.90
44695;DHT22;32845;59.422;17.930;2023-03-20T19:55:04;2.40;99.90
44695;DHT22;32845;59.422;17.930;2023-03-20T19:59:35;2.40;99.90
44695;DHT22;32845;59.422;17.930;2023-03-20T20:04:05;2.30;99.90
44695;DHT22;32845;59.422;17.930;2023-03-20T20:08:36;2.30;99.90
44695;DHT22;32845;59.422;17.930;2023-03-20T20:13:12;2.30;99.90
44695;DHT22;32845;59.422;17.930;2023-03-20T20:17:47;2.30;99.90
44695;DHT22;32845;59.422;17.930;2023-03-20T20:22:18;2.30;99.90
44695;DHT22;32845;59.422;17.930;2023-03-20T20:26:50;2.30;99.90
44695;DHT22;32845;59.422;17.930;2023-03-20T20:31:30;2.30;99.90
44695;DHT22;32845;59.422;17.930;2023-03-20T20:36:08;2.30;99.90
44695;DHT22;32845;59.422;17.930;2023-03-20T20:40:40;2.30;99.90
44695;DHT22;32845;59.422;17.930;2023-03-20T20:45:12;2.30;99.90
44695;DHT22;32845;59.422;17.930;2023-03-20T20:49:45;2.30;99.90
44695;DHT22;32845;59.422;17.930;2023-03-20T20:54:16;2.30;99.90
44695;DHT22;32845;59.422;17.930;2023-03-20T20:58:53;2.20;99.90
44695;DHT22;32845;59.422;17.930;2023-03-20T21:03:24;2.10;99.90
44695;DHT22;32845;59.422;17.930;2023-03-20T21:07:55;2.10;99.90
44695;DHT22;32845;59.422;17.930;2023-03-20T21:12:27;2.00;99.90
44695;DHT22;32845;59.422;17.930;2023-03-20T21:16:58;2.00;99.90
44695;DHT22;32845;59.422;17.930;2023-03-20T21:21:31;2.00;99.90
44695;DHT22;32845;59.422;17.930;2023-03-20T21:26:04;1.90;99.90
44695;DHT22;32845;59.422;17.930;2023-03-20T21:30:37;1.80;99.90
44695;DHT22;32845;59.422;17.930;2023-03-20T21:35:08;1.80;99.90
44695;DHT22;32845;59.422;17.930;2023-03-20T21:39:39;1.70;99.90
44695;DHT22;32845;59.422;17.930;2023-03-20T21:44:10;1.70;99.90
44695;DHT22;32845;59.422;17.930;2023-03-20T21:48:42;1.60;99.90
44695;DHT22;32845;59.422;17.930;2023-03-20T21:53:12;1.50;99.90
44695;DHT22;32845;59.422;17.930;2023-03-20T21:57:45;1.50;99.90
44695;DHT22;32845;59.422;17.930;2023-03-20T22:02:16;1.40;99.90
44695;DHT22;32845;59.422;17.930;2023-03-20T22:06:46;1.30;99.90
44695;DHT22;32845;59.422;17.930;2023-03-20T22:11:17;1.20;99.90
44695;DHT22;32845;59.422;17.930;2023-03-20T22:15:48;1.10;99.90
44695;DHT22;32845;59.422;17.930;2023-03-20T22:20:19;1.10;99.90
44695;DHT22;32845;59.422;17.930;2023-03-20T22:24:50;1.10;99.90
44695;DHT22;32845;59.422;17.930;2023-03-20T22:29:20;1.10;99.90
44695;DHT22;32845;59.422;17.930;2023-03-20T22:33:51;1.10;99.90
44695;DHT22;32845;59.422;17.930;2023-03-20T22:38:22;1.10;99.90
44695;DHT22;32845;59.422;17.930;2023-03-20T22:42:53;1.20;99.90
44695;DHT22;32845;59.422;17.930;2023-03-20T22:47:23;1.20;99.90
44695;DHT22;32845;59.422;17.930;2023-03-20T22:51:54;1.20;99.90
44695;DHT22;32845;59.422;17.930;2023-03-20T22:56:25;1.20;99.90
44695;DHT22;32845;59.422;17.930;2023-03-20T23:00:56;1.20;99.90
44695;DHT22;32845;59.422;17.930;2023-03-20T23:05:27;1.20;99.90
44695;DHT22;32845;59.422;17.930;2023-03-20T23:09:57;1.20;99.90
44695;DHT22;32845;59.422;17.930;2023-03-20T23:14:28;1.20;99.90
44695;DHT22;32845;59.422;17.930;2023-03-20T23:18:59;1.20;99.90
44695;DHT22;32845;59.422;17.930;2023-03-20T23:23:30;1.10;99.90
44695;DHT22;32845;59.422;17.930;2023-03-20T23:28:01;1.10;99.90
44695;DHT22;32845;59.422;17.930;2023-03-20T23:32:38;1.10;99.90
44695;DHT22;32845;59.422;17.930;2023-03-20T23:37:09;1.10;99.90
44695;DHT22;32845;59.422;17.930;2023-03-20T23:41:40;1.10;99.90
44695;DHT22;32845;59.422;17.930;2023-03-20T23:46:11;1.10;99.90
44695;DHT22;32845;59.422;17.930;2023-03-20T23:50:42;1.10;99.90
44695;DHT22;32845;59.422;17.930;2023-03-20T23:55:14;1.10;99.90
44695;DHT22;32845;59.422;17.930;2023-03-20T23:59:50;1.10;99.90
